Boone, IA

12:33 AM CDT on June 03, 2015 (GMT -0500)
Magnolia Rd | | Change Station
CLOSE
Current Station
Personal Weather Station
Location: Boone, IA
Elevation: 1028 ft
Nearby Weather Stations

Elev 1028 ft 41.99 °N, 93.93 °W | Updated 3 minutes ago

Clear
Clear
61.5 °F
Feels Like 61.5 °F
N
4.0
Wind Variable Wind from SSE
Gusts 4.0 mph

Today
High -- | Low -- °F
--% Chance of Precip.
Yesterday
High -- | Low -- °F
Precip. -- in
5:41 AM 8:46 PM
Full, 100% visible
Pressure 29.96 in
Visibility 10.0 miles
Clouds Clear
Dew Point 56 °F
Humidity 83%
Rainfall 0.00 in
Snow Depth Not available.
UV 0.0 out of 12
Pollen 7.40 out of 12
Air Quality Not available.
Flu Activity No Activity
METAR KAMW 030453Z AUTO 15009KT 10SM CLR 16/12 A2997 RMK AO2 SLP143 T01610122

More Conditions Fewer Conditions

Pressure 29.96 in
Visibility 10.0 miles
Clouds Clear
Dew Point 56 °F
Humidity 83%
Rainfall 0.00 in
Snow Depth Not available.
UV 0.0 out of 12
Pollen 7.40 out of 12
Air Quality Not available.
Flu Activity No Activity
METAR KAMW 030453Z AUTO 15009KT 10SM CLR 16/12 A2997 RMK AO2 SLP143 T01610122

More Conditions Fewer Conditions

10-Day Weather Forecast

×

Almanac

Astronomy

Jun. 03, 2015 Rise Set
Actual Time
Civil Twilight
Nautical Twilight
Astronomical Twilight
Moon
Length of Visible Light
Length of Day
Tomorrow will be .
, % of the Moon is Illuminated

Today's Extremes

State Highs State Lows

Community

WunderPhotos

Upload Photos

1,826,172 photos uploaded!

WunderBlogs® & News

Nearby

Air Quality

  Air Quality AQ Index Pollutant
Not available.

Snow Depth

Station Depth Elevation

Earthquake Activity

City Distance Mag. Time & Date
Minimum magnitude displayed is 2.5.

Coastal Water Temperatures

Place Temperature

Stations

Nearby Weather Stations

Station Location Temp. Windchill Dew Point Humidity Wind Precip. Elev Updated Type